Time;durP1;ratioP1;P1;durP2;ratioP2;P2;SDS_P1;SDS_P2;PMS_P1;PMS_P2;Temp;Humidity;BMP_temperature;BMP_pressure;BME280_temperature;BME280_humidity;BME280_pressure;Samples;Min_cycle;Max_cycle;Signal;HPM_P1;HPM_P2
2023/11/29 00:02:20;;;;;;;;;;;3.60;99.90;;;;;;5030881;28;20040;-76
2023/11/29 00:04:46;;;;;;;;;;;3.60;99.90;;;;;;5015441;28;19910;-76
2023/11/29 00:07:11;;;;;;;;;;;3.50;99.90;;;;;;5016019;28;19909;-77
2023/11/29 00:09:38;;;;;;;;;;;3.50;99.90;;;;;;5015616;28;19918;-74
2023/11/29 00:12:04;;;;;;;;;;;3.50;99.90;;;;;;5010372;28;19916;-76
2023/11/29 00:14:30;;;;;;;;;;;3.50;99.90;;;;;;4996135;28;19910;-76
2023/11/29 00:16:56;;;;;;;;;;;3.50;99.90;;;;;;4995723;28;19914;-75
2023/11/29 00:19:21;;;;;;;;;;;3.60;99.90;;;;;;5007236;28;20273;-75
2023/11/29 00:21:47;;;;;;;;;;;3.50;99.90;;;;;;5012649;28;19914;-75
2023/11/29 00:24:13;;;;;;;;;;;3.60;99.90;;;;;;5014037;28;19914;-76
2023/11/29 00:26:38;;;;;;;;;;;3.60;99.90;;;;;;5001685;28;19914;-76
2023/11/29 00:29:04;;;;;;;;;;;3.60;99.90;;;;;;5003334;28;20446;-76
2023/11/29 00:31:29;;;;;;;;;;;3.60;99.90;;;;;;5015268;28;20012;-77
2023/11/29 00:33:55;;;;;;;;;;;3.60;99.90;;;;;;4999122;28;20004;-77
2023/11/29 00:36:20;;;;;;;;;;;3.60;99.90;;;;;;4995382;28;19921;-76
2023/11/29 00:38:46;;;;;;;;;;;3.60;99.90;;;;;;5010340;28;19917;-76
2023/11/29 00:41:11;;;;;;;;;;;3.60;99.90;;;;;;4995787;28;19917;-76
2023/11/29 00:43:37;;;;;;;;;;;3.60;99.90;;;;;;4996319;28;20397;-76
2023/11/29 00:46:03;;;;;;;;;;;3.60;99.90;;;;;;5006160;28;20011;-75
2023/11/29 00:48:28;;;;;;;;;;;3.70;99.90;;;;;;4995132;28;19909;-75
2023/11/29 00:50:54;;;;;;;;;;;3.70;99.90;;;;;;5008619;28;20406;-76
2023/11/29 00:53:20;;;;;;;;;;;3.70;99.90;;;;;;5014212;28;19916;-75
2023/11/29 00:55:45;;;;;;;;;;;3.70;99.90;;;;;;5014606;28;20422;-76
2023/11/29 00:58:11;;;;;;;;;;;3.70;99.90;;;;;;5013970;28;19910;-74
2023/11/29 01:00:36;;;;;;;;;;;3.60;99.90;;;;;;5014581;28;19910;-75
2023/11/29 01:03:02;;;;;;;;;;;3.60;99.90;;;;;;5013777;28;19914;-76
2023/11/29 01:05:27;;;;;;;;;;;3.70;99.90;;;;;;5013349;28;20403;-76
2023/11/29 01:07:53;;;;;;;;;;;3.70;99.90;;;;;;5014361;28;19960;-76
2023/11/29 01:10:18;;;;;;;;;;;3.70;99.90;;;;;;5013824;28;19917;-76
2023/11/29 01:12:44;;;;;;;;;;;3.60;99.90;;;;;;5003782;28;19949;-75
2023/11/29 01:15:10;;;;;;;;;;;3.70;99.90;;;;;;4993753;28;19910;-74
2023/11/29 01:17:36;;;;;;;;;;;3.70;99.90;;;;;;4995560;28;19967;-76
2023/11/29 01:20:03;;;;;;;;;;;3.80;99.90;;;;;;5002109;28;19920;-76
2023/11/29 01:22:28;;;;;;;;;;;3.80;99.90;;;;;;5013002;28;20387;-76
2023/11/29 01:24:54;;;;;;;;;;;3.80;99.90;;;;;;5014101;28;19913;-75
2023/11/29 01:27:19;;;;;;;;;;;3.80;99.90;;;;;;5029324;28;20373;-74
2023/11/29 01:29:45;;;;;;;;;;;3.80;99.90;;;;;;5012579;28;19914;-76
2023/11/29 01:32:10;;;;;;;;;;;3.80;99.90;;;;;;5012390;28;19922;-76
2023/11/29 01:34:36;;;;;;;;;;;3.90;99.90;;;;;;4994367;28;19941;-77
2023/11/29 01:37:03;;;;;;;;;;;3.90;99.90;;;;;;5004970;28;19913;-77
2023/11/29 01:39:29;;;;;;;;;;;3.90;99.90;;;;;;5013753;28;19909;-76
2023/11/29 01:41:54;;;;;;;;;;;3.80;99.90;;;;;;5014012;28;19920;-75
2023/11/29 01:44:20;;;;;;;;;;;3.80;99.90;;;;;;5001230;28;19918;-77
2023/11/29 01:46:45;;;;;;;;;;;3.80;99.90;;;;;;5002771;28;19917;-77
2023/11/29 01:49:11;;;;;;;;;;;3.70;99.90;;;;;;5004681;28;20389;-77
2023/11/29 01:51:37;;;;;;;;;;;3.70;99.90;;;;;;5013834;28;19957;-75
2023/11/29 01:54:03;;;;;;;;;;;3.60;99.90;;;;;;5013601;28;19910;-74
2023/11/29 01:56:28;;;;;;;;;;;3.70;99.90;;;;;;5013694;28;19910;-76
2023/11/29 01:58:54;;;;;;;;;;;3.70;99.90;;;;;;5013710;28;20415;-77
2023/11/29 02:01:20;;;;;;;;;;;3.70;99.90;;;;;;5013778;28;19910;-77
2023/11/29 02:03:46;;;;;;;;;;;3.70;99.90;;;;;;5013345;28;19952;-75
2023/11/29 02:06:11;;;;;;;;;;;3.70;99.90;;;;;;5013643;28;20292;-75
2023/11/29 02:08:37;;;;;;;;;;;3.70;99.90;;;;;;5013620;28;19964;-76
2023/11/29 02:11:03;;;;;;;;;;;3.70;99.90;;;;;;5012251;28;19913;-77
2023/11/29 02:13:29;;;;;;;;;;;3.70;99.90;;;;;;4996872;28;20361;-77
2023/11/29 02:15:54;;;;;;;;;;;3.70;99.90;;;;;;4993736;28;19913;-77
2023/11/29 02:18:20;;;;;;;;;;;3.70;99.90;;;;;;5004425;28;19925;-75
2023/11/29 02:20:45;;;;;;;;;;;3.60;99.90;;;;;;5012974;28;19914;-74
2023/11/29 02:23:21;;;;;;;;;;;3.70;99.90;;;;;;5012097;28;19910;-76
2023/11/29 02:25:46;;;;;;;;;;;3.70;99.90;;;;;;5013032;28;20000;-77
2023/11/29 02:28:12;;;;;;;;;;;3.60;99.90;;;;;;5009077;28;19949;-77
2023/11/29 02:30:37;;;;;;;;;;;3.60;99.90;;;;;;4993651;28;20391;-77
2023/11/29 02:33:03;;;;;;;;;;;3.50;99.90;;;;;;4993725;28;19922;-77
2023/11/29 02:35:28;;;;;;;;;;;3.60;99.90;;;;;;4993832;28;19910;-77
2023/11/29 02:37:54;;;;;;;;;;;3.50;99.90;;;;;;5001348;28;19945;-76
2023/11/29 02:40:19;;;;;;;;;;;3.50;99.90;;;;;;5013358;28;19974;-76
2023/11/29 02:42:45;;;;;;;;;;;3.60;99.90;;;;;;5013065;28;19909;-75
2023/11/29 02:45:11;;;;;;;;;;;3.50;99.90;;;;;;5005646;28;19920;-74
2023/11/29 02:47:36;;;;;;;;;;;3.50;99.90;;;;;;4998063;28;19910;-76
2023/11/29 02:50:02;;;;;;;;;;;3.50;99.90;;;;;;4993269;28;20312;-76
2023/11/29 02:52:27;;;;;;;;;;;3.50;99.90;;;;;;4993849;28;19909;-76
2023/11/29 02:54:53;;;;;;;;;;;3.50;99.90;;;;;;4993326;28;19961;-76
2023/11/29 02:57:19;;;;;;;;;;;3.50;99.90;;;;;;5013936;28;19910;-74
2023/11/29 02:59:45;;;;;;;;;;;3.50;99.90;;;;;;5016985;28;19914;-74
2023/11/29 03:02:11;;;;;;;;;;;3.40;99.90;;;;;;5017235;28;20264;-76
2023/11/29 03:04:36;;;;;;;;;;;3.30;99.90;;;;;;5015670;28;19916;-76
2023/11/29 03:07:02;;;;;;;;;;;3.30;99.90;;;;;;5016611;28;19915;-76
2023/11/29 03:09:27;;;;;;;;;;;3.30;99.90;;;;;;5016431;28;20296;-74
2023/11/29 03:11:53;;;;;;;;;;;3.40;99.90;;;;;;5016458;28;19909;-74
2023/11/29 03:14:18;;;;;;;;;;;3.30;99.90;;;;;;5016794;28;20331;-76
2023/11/29 03:16:44;;;;;;;;;;;3.40;99.90;;;;;;5016493;28;19920;-76
2023/11/29 03:19:09;;;;;;;;;;;3.40;99.90;;;;;;5014914;28;19941;-77
2023/11/29 03:21:35;;;;;;;;;;;3.40;99.90;;;;;;5016326;28;20400;-74
2023/11/29 03:24:00;;;;;;;;;;;3.40;99.90;;;;;;5012985;28;19964;-74
2023/11/29 03:26:26;;;;;;;;;;;3.40;99.90;;;;;;5016436;28;19909;-77
2023/11/29 03:28:51;;;;;;;;;;;3.40;99.90;;;;;;5016394;28;19909;-77
2023/11/29 03:31:17;;;;;;;;;;;3.50;99.90;;;;;;5011860;28;19960;-76
2023/11/29 03:33:42;;;;;;;;;;;3.50;99.90;;;;;;5003430;28;19917;-76
2023/11/29 03:36:08;;;;;;;;;;;3.40;99.90;;;;;;4996824;28;19910;-75
2023/11/29 03:38:33;;;;;;;;;;;3.40;99.90;;;;;;4996775;28;19909;-74
2023/11/29 03:40:59;;;;;;;;;;;3.30;99.90;;;;;;4996367;28;20000;-77
2023/11/29 03:43:24;;;;;;;;;;;3.40;99.90;;;;;;5011907;28;19961;-77
2023/11/29 03:45:50;;;;;;;;;;;3.20;99.90;;;;;;5009078;28;19929;-77
2023/11/29 03:48:15;;;;;;;;;;;3.20;99.90;;;;;;4996531;28;19910;-75
2023/11/29 03:50:41;;;;;;;;;;;3.20;99.90;;;;;;5011132;28;19917;-74
2023/11/29 03:53:06;;;;;;;;;;;3.10;99.90;;;;;;4996330;28;19910;-76
2023/11/29 03:55:32;;;;;;;;;;;3.00;99.90;;;;;;5001217;28;19910;-76
2023/11/29 03:57:57;;;;;;;;;;;3.10;99.90;;;;;;5015847;28;19917;-77
2023/11/29 04:00:23;;;;;;;;;;;3.00;99.90;;;;;;5015531;28;20008;-75
2023/11/29 04:02:49;;;;;;;;;;;3.10;99.90;;;;;;5015206;28;19909;-75
2023/11/29 04:05:14;;;;;;;;;;;3.10;99.90;;;;;;5015376;28;20311;-76
2023/11/29 04:07:40;;;;;;;;;;;3.10;99.90;;;;;;5015243;28;19910;-77
2023/11/29 04:10:05;;;;;;;;;;;3.10;99.90;;;;;;5015358;28;19920;-77
2023/11/29 04:12:31;;;;;;;;;;;3.10;99.90;;;;;;5006742;28;19910;-77
2023/11/29 04:14:56;;;;;;;;;;;3.10;99.90;;;;;;4996220;28;19961;-75
2023/11/29 04:17:22;;;;;;;;;;;3.00;99.90;;;;;;4997336;28;19914;-76
2023/11/29 04:19:48;;;;;;;;;;;3.00;99.90;;;;;;5012077;28;20266;-77
2023/11/29 04:22:13;;;;;;;;;;;2.90;99.90;;;;;;4997547;28;19964;-77
2023/11/29 04:24:39;;;;;;;;;;;3.00;99.90;;;;;;5015398;28;19909;-77
2023/11/29 04:27:04;;;;;;;;;;;3.00;99.90;;;;;;4999076;28;19914;-75
2023/11/29 04:29:30;;;;;;;;;;;3.00;99.90;;;;;;5015335;28;19964;-75
2023/11/29 04:31:55;;;;;;;;;;;3.00;99.90;;;;;;5014933;28;20385;-77
2023/11/29 04:34:21;;;;;;;;;;;3.00;99.90;;;;;;5008763;28;19920;-77
2023/11/29 04:36:47;;;;;;;;;;;3.00;99.90;;;;;;4995302;28;20058;-76
2023/11/29 04:39:12;;;;;;;;;;;3.00;99.90;;;;;;4995585;28;19917;-75
2023/11/29 04:41:38;;;;;;;;;;;3.00;99.90;;;;;;5014990;28;19909;-76
2023/11/29 04:44:04;;;;;;;;;;;3.00;99.90;;;;;;5011774;28;19995;-75
2023/11/29 04:46:30;;;;;;;;;;;3.00;99.90;;;;;;5004507;28;19913;-77
2023/11/29 04:48:55;;;;;;;;;;;3.00;99.90;;;;;;5011087;28;19917;-77
2023/11/29 04:51:21;;;;;;;;;;;3.00;99.90;;;;;;5015051;28;19920;-77
2023/11/29 04:53:46;;;;;;;;;;;3.00;99.90;;;;;;5014566;28;20364;-74
2023/11/29 04:56:12;;;;;;;;;;;3.00;99.90;;;;;;5014703;28;20024;-74
2023/11/29 04:58:40;;;;;;;;;;;3.00;99.90;;;;;;5013169;28;20014;-76
2023/11/29 05:01:09;;;;;;;;;;;2.90;99.90;;;;;;5014486;28;20016;-77
2023/11/29 05:03:36;;;;;;;;;;;2.90;99.90;;;;;;5014435;28;19992;-76
2023/11/29 05:06:03;;;;;;;;;;;2.90;99.90;;;;;;5014413;28;19913;-75
2023/11/29 05:08:29;;;;;;;;;;;2.90;99.90;;;;;;5014509;28;19909;-75
2023/11/29 05:10:54;;;;;;;;;;;2.90;99.90;;;;;;5014215;28;19917;-76
2023/11/29 05:13:20;;;;;;;;;;;3.00;99.90;;;;;;5014354;28;20380;-76
2023/11/29 05:15:47;;;;;;;;;;;3.00;99.90;;;;;;5014274;28;20291;-77
2023/11/29 05:18:13;;;;;;;;;;;3.00;99.90;;;;;;5012182;28;19914;-77
2023/11/29 05:20:38;;;;;;;;;;;3.00;99.90;;;;;;5005974;28;19925;-75
2023/11/29 05:23:04;;;;;;;;;;;2.90;99.90;;;;;;5003710;28;19920;-75
2023/11/29 05:25:30;;;;;;;;;;;2.90;99.90;;;;;;5014244;28;19932;-77
2023/11/29 05:27:55;;;;;;;;;;;2.90;99.90;;;;;;5017389;28;19917;-77
2023/11/29 05:30:22;;;;;;;;;;;2.80;99.90;;;;;;5014228;28;19917;-77
2023/11/29 05:32:48;;;;;;;;;;;2.80;99.90;;;;;;5013825;28;20384;-76
2023/11/29 05:35:14;;;;;;;;;;;2.80;99.90;;;;;;5014267;28;19953;-75
2023/11/29 05:37:40;;;;;;;;;;;2.70;99.90;;;;;;5004759;28;19947;-77
2023/11/29 05:40:08;;;;;;;;;;;2.80;99.90;;;;;;4994323;28;19914;-77
2023/11/29 05:42:36;;;;;;;;;;;2.80;99.90;;;;;;4994714;28;19913;-77
2023/11/29 05:45:03;;;;;;;;;;;2.80;99.90;;;;;;5015379;28;19916;-75
2023/11/29 05:47:30;;;;;;;;;;;2.80;99.90;;;;;;5004124;28;20439;-75
2023/11/29 05:49:55;;;;;;;;;;;2.90;99.90;;;;;;5013759;28;19917;-76
2023/11/29 05:52:20;;;;;;;;;;;2.90;99.90;;;;;;5005834;28;19913;-77
2023/11/29 05:54:46;;;;;;;;;;;2.80;99.90;;;;;;4999047;28;20001;-77
2023/11/29 05:57:12;;;;;;;;;;;2.80;99.90;;;;;;4994631;28;19918;-75
2023/11/29 05:59:38;;;;;;;;;;;2.80;99.90;;;;;;4993863;28;19910;-75
2023/11/29 06:02:05;;;;;;;;;;;2.90;99.90;;;;;;4997002;28;19913;-75
2023/11/29 06:04:33;;;;;;;;;;;2.90;99.90;;;;;;5012612;28;19909;-77
2023/11/29 06:06:59;;;;;;;;;;;3.00;99.90;;;;;;5013059;28;19910;-77
2023/11/29 06:09:30;;;;;;;;;;;3.00;99.90;;;;;;5012784;28;19921;-77
2023/11/29 06:11:56;;;;;;;;;;;3.10;99.90;;;;;;5011325;28;19914;-75
2023/11/29 06:14:27;;;;;;;;;;;3.00;99.90;;;;;;5013385;28;19999;-75
2023/11/29 06:16:53;;;;;;;;;;;3.00;99.90;;;;;;5013345;28;19910;-77
2023/11/29 06:19:20;;;;;;;;;;;2.90;99.90;;;;;;5001456;28;19918;-77
2023/11/29 06:21:46;;;;;;;;;;;2.90;99.90;;;;;;5013147;28;19913;-77
2023/11/29 06:24:12;;;;;;;;;;;2.80;99.90;;;;;;4994861;28;19917;-77
2023/11/29 06:26:37;;;;;;;;;;;2.80;99.90;;;;;;5000678;28;19913;-77
2023/11/29 06:29:04;;;;;;;;;;;2.70;99.90;;;;;;5006094;28;19969;-77
2023/11/29 06:31:30;;;;;;;;;;;2.70;99.90;;;;;;5004215;28;20021;-75
2023/11/29 06:33:55;;;;;;;;;;;2.60;99.90;;;;;;5015956;28;19910;-76
2023/11/29 06:36:21;;;;;;;;;;;2.60;99.90;;;;;;5001347;28;19917;-76
2023/11/29 06:38:47;;;;;;;;;;;2.60;99.90;;;;;;5003607;28;19952;-77
2023/11/29 06:41:12;;;;;;;;;;;2.60;99.90;;;;;;5002820;28;19913;-75
2023/11/29 06:43:39;;;;;;;;;;;2.50;99.90;;;;;;5015200;28;19936;-75
2023/11/29 06:46:05;;;;;;;;;;;2.50;99.90;;;;;;5009265;28;20411;-75
2023/11/29 06:48:31;;;;;;;;;;;2.60;99.90;;;;;;5008610;28;19921;-76
2023/11/29 06:51:00;;;;;;;;;;;2.50;99.90;;;;;;5031018;28;19917;-77
2023/11/29 06:53:26;;;;;;;;;;;2.50;99.90;;;;;;5003059;28;19914;-74
2023/11/29 06:55:52;;;;;;;;;;;2.50;99.90;;;;;;5004245;28;19920;-75
2023/11/29 06:58:17;;;;;;;;;;;2.50;99.90;;;;;;5016066;28;19949;-75
2023/11/29 07:00:43;;;;;;;;;;;2.50;99.90;;;;;;5015401;28;19913;-75
2023/11/29 07:03:09;;;;;;;;;;;2.50;99.90;;;;;;5008320;28;20334;-76
2023/11/29 07:05:35;;;;;;;;;;;2.50;99.90;;;;;;5008605;28;20000;-76
2023/11/29 07:08:00;;;;;;;;;;;2.50;99.90;;;;;;4996421;28;19913;-76
2023/11/29 07:10:27;;;;;;;;;;;2.40;99.90;;;;;;5005910;28;19963;-75
2023/11/29 07:12:55;;;;;;;;;;;2.50;99.90;;;;;;5023789;28;19975;-75
2023/11/29 07:15:20;;;;;;;;;;;2.50;99.90;;;;;;5015303;28;19995;-75
2023/11/29 07:17:46;;;;;;;;;;;2.50;99.90;;;;;;5007557;28;20008;-76
2023/11/29 07:20:11;;;;;;;;;;;2.60;99.90;;;;;;5008440;28;19927;-75
2023/11/29 07:22:37;;;;;;;;;;;2.70;99.90;;;;;;5030439;28;20024;-75
2023/11/29 07:25:03;;;;;;;;;;;2.70;99.90;;;;;;5015447;28;19920;-76
2023/11/29 07:27:28;;;;;;;;;;;2.70;99.90;;;;;;5010743;28;19921;-75
2023/11/29 07:29:54;;;;;;;;;;;2.80;99.90;;;;;;5005661;28;19972;-75
2023/11/29 07:32:22;;;;;;;;;;;2.80;99.90;;;;;;5004060;28;20335;-75
2023/11/29 07:34:49;;;;;;;;;;;2.70;99.90;;;;;;5010553;28;20316;-75
2023/11/29 07:37:18;;;;;;;;;;;2.70;99.90;;;;;;5012911;28;19918;-75
2023/11/29 07:39:44;;;;;;;;;;;2.70;99.90;;;;;;5012583;28;19913;-75
2023/11/29 07:42:09;;;;;;;;;;;2.70;99.90;;;;;;5002920;28;20462;-76
2023/11/29 07:44:35;;;;;;;;;;;2.80;99.90;;;;;;5005117;28;20336;-76
2023/11/29 07:47:03;;;;;;;;;;;2.80;99.90;;;;;;5008845;28;19924;-76
2023/11/29 07:49:29;;;;;;;;;;;2.90;99.90;;;;;;5007186;28;20400;-76
2023/11/29 07:51:55;;;;;;;;;;;2.90;99.90;;;;;;5007282;28;20388;-76
2023/11/29 07:54:20;;;;;;;;;;;3.00;99.90;;;;;;5008150;28;19914;-76
2023/11/29 07:56:46;;;;;;;;;;;3.00;99.90;;;;;;5001202;28;19921;-76
2023/11/29 07:59:12;;;;;;;;;;;3.00;99.90;;;;;;5000636;28;19909;-75
2023/11/29 08:01:38;;;;;;;;;;;3.00;99.90;;;;;;5010771;28;19962;-75
2023/11/29 08:04:04;;;;;;;;;;;3.10;99.90;;;;;;5011769;28;20410;-75
2023/11/29 08:06:30;;;;;;;;;;;3.20;99.90;;;;;;5002785;28;19932;-75
2023/11/29 08:08:56;;;;;;;;;;;3.30;99.90;;;;;;5003722;28;20369;-76
2023/11/29 08:11:22;;;;;;;;;;;3.40;99.90;;;;;;4994118;28;19918;-76
2023/11/29 08:13:48;;;;;;;;;;;3.40;99.90;;;;;;5004927;28;19921;-75
2023/11/29 08:16:14;;;;;;;;;;;3.60;99.90;;;;;;5011620;28;20344;-76
2023/11/29 08:18:39;;;;;;;;;;;3.80;99.90;;;;;;5003272;28;20007;-75
2023/11/29 08:21:05;;;;;;;;;;;3.80;99.90;;;;;;5002757;28;19933;-76
2023/11/29 08:23:30;;;;;;;;;;;3.90;99.90;;;;;;5005861;28;19913;-75
2023/11/29 08:25:56;;;;;;;;;;;4.00;99.90;;;;;;4993101;28;19936;-76
2023/11/29 08:28:22;;;;;;;;;;;3.90;99.90;;;;;;5001404;28;19924;-76
2023/11/29 08:30:48;;;;;;;;;;;3.80;99.90;;;;;;5007467;28;19921;-76
2023/11/29 08:33:13;;;;;;;;;;;3.90;99.90;;;;;;5010958;28;20025;-76
2023/11/29 08:35:40;;;;;;;;;;;4.10;99.90;;;;;;5007248;28;20301;-75
2023/11/29 08:38:06;;;;;;;;;;;4.30;99.90;;;;;;5006068;28;20311;-75
2023/11/29 08:40:31;;;;;;;;;;;4.40;99.90;;;;;;5009767;28;20008;-75
2023/11/29 08:42:57;;;;;;;;;;;4.40;99.90;;;;;;5002306;28;19921;-75
2023/11/29 08:45:22;;;;;;;;;;;4.50;99.90;;;;;;5005523;28;20343;-75
2023/11/29 08:47:48;;;;;;;;;;;4.60;99.90;;;;;;5006399;28;19957;-76
2023/11/29 08:50:13;;;;;;;;;;;4.70;99.90;;;;;;5007153;28;19917;-76
2023/11/29 08:52:42;;;;;;;;;;;4.80;99.90;;;;;;5017927;28;19914;-76
2023/11/29 08:55:08;;;;;;;;;;;4.90;99.90;;;;;;5010356;28;19917;-76
2023/11/29 08:57:34;;;;;;;;;;;5.10;99.90;;;;;;5009720;28;19926;-75
2023/11/29 08:59:59;;;;;;;;;;;5.20;99.90;;;;;;5003911;28;19922;-76
2023/11/29 09:02:27;;;;;;;;;;;5.40;99.90;;;;;;5012422;28;20016;-76
2023/11/29 09:04:53;;;;;;;;;;;5.50;99.90;;;;;;5012022;28;19920;-75
2023/11/29 09:07:18;;;;;;;;;;;5.50;99.90;;;;;;5012147;28;19913;-75
2023/11/29 09:09:44;;;;;;;;;;;5.30;99.90;;;;;;4999850;28;19949;-75
2023/11/29 09:12:11;;;;;;;;;;;5.30;99.90;;;;;;4999064;28;20285;-76
2023/11/29 09:14:37;;;;;;;;;;;5.30;99.90;;;;;;5012428;28;20284;-75
2023/11/29 09:17:03;;;;;;;;;;;5.30;99.90;;;;;;5011210;28;19913;-76
2023/11/29 09:19:29;;;;;;;;;;;5.30;99.90;;;;;;5010128;28;19972;-75
2023/11/29 09:21:54;;;;;;;;;;;5.30;99.90;;;;;;5010224;28;19991;-75
2023/11/29 09:24:21;;;;;;;;;;;5.40;99.90;;;;;;5003825;28;20027;-75
2023/11/29 09:26:46;;;;;;;;;;;5.40;99.90;;;;;;5007118;28;19938;-75
2023/11/29 09:29:12;;;;;;;;;;;5.50;99.90;;;;;;5006870;28;19918;-75
2023/11/29 09:31:39;;;;;;;;;;;5.50;99.90;;;;;;5005229;28;19925;-75
2023/11/29 09:34:05;;;;;;;;;;;5.50;99.90;;;;;;5005821;28;20288;-75
2023/11/29 09:36:30;;;;;;;;;;;5.50;99.90;;;;;;5008754;28;20005;-75
2023/11/29 09:38:55;;;;;;;;;;;5.60;99.90;;;;;;5005569;28;19914;-76
2023/11/29 09:41:21;;;;;;;;;;;5.70;99.90;;;;;;5006314;28;20400;-75
2023/11/29 09:43:47;;;;;;;;;;;5.70;99.90;;;;;;5003147;28;19968;-75
2023/11/29 09:46:12;;;;;;;;;;;5.80;99.90;;;;;;5008437;28;20415;-75
2023/11/29 09:48:38;;;;;;;;;;;5.90;99.90;;;;;;5009146;28;19913;-75
2023/11/29 09:51:04;;;;;;;;;;;6.00;99.90;;;;;;5008625;28;19940;-75
2023/11/29 09:53:30;;;;;;;;;;;6.10;99.90;;;;;;5006829;28;19959;-76
2023/11/29 09:55:56;;;;;;;;;;;6.20;99.90;;;;;;5000252;28;19945;-75
2023/11/29 09:58:22;;;;;;;;;;;6.30;99.90;;;;;;4995464;28;19917;-75
2023/11/29 10:00:47;;;;;;;;;;;6.40;99.90;;;;;;4994962;28;19920;-75
2023/11/29 10:03:13;;;;;;;;;;;6.50;99.90;;;;;;5010427;28;20213;-76
2023/11/29 10:05:46;;;;;;;;;;;6.40;99.90;;;;;;4998210;28;19961;-75
2023/11/29 10:08:19;;;;;;;;;;;6.40;99.90;;;;;;5003832;28;19980;-76
2023/11/29 10:10:45;;;;;;;;;;;6.80;99.90;;;;;;5003865;28;19932;-75
2023/11/29 10:13:12;;;;;;;;;;;6.80;99.90;;;;;;4997218;28;19913;-75
2023/11/29 10:15:37;;;;;;;;;;;6.70;99.90;;;;;;4992942;28;20000;-75
2023/11/29 10:18:03;;;;;;;;;;;6.80;99.90;;;;;;5007881;28;20141;-75
2023/11/29 10:20:29;;;;;;;;;;;7.10;99.90;;;;;;5008730;28;19928;-75
2023/11/29 10:22:55;;;;;;;;;;;7.10;99.90;;;;;;5001771;28;19918;-75
2023/11/29 10:25:21;;;;;;;;;;;7.10;99.90;;;;;;4997212;28;20369;-75
2023/11/29 10:27:47;;;;;;;;;;;7.20;99.90;;;;;;4996626;28;19967;-75
2023/11/29 10:30:13;;;;;;;;;;;7.00;99.90;;;;;;4989845;28;19937;-75
2023/11/29 10:32:39;;;;;;;;;;;7.30;99.90;;;;;;5006888;28;19932;-75
2023/11/29 10:35:07;;;;;;;;;;;7.40;99.90;;;;;;5009979;28;19922;-75
2023/11/29 10:37:33;;;;;;;;;;;7.50;99.90;;;;;;5000550;28;20397;-75
2023/11/29 10:40:00;;;;;;;;;;;7.50;99.90;;;;;;4990528;28;20293;-75
2023/11/29 10:42:25;;;;;;;;;;;7.50;99.90;;;;;;5002949;28;19924;-75
2023/11/29 10:44:51;;;;;;;;;;;7.60;99.90;;;;;;5004754;28;19913;-75
2023/11/29 10:47:17;;;;;;;;;;;7.50;99.90;;;;;;5004038;28;20423;-75
2023/11/29 10:49:57;;;;;;;;;;;7.40;99.90;;;;;;5002909;28;20008;-75
2023/11/29 10:52:25;;;;;;;;;;;7.50;99.90;;;;;;5006876;28;19976;-75
2023/11/29 10:54:51;;;;;;;;;;;7.70;99.90;;;;;;5000836;28;19929;-75
2023/11/29 10:57:22;;;;;;;;;;;7.70;99.90;;;;;;5008493;28;19929;-75
2023/11/29 10:59:51;;;;;;;;;;;7.70;99.90;;;;;;5000191;28;19937;-75
2023/11/29 11:02:16;;;;;;;;;;;8.00;99.90;;;;;;5007097;28;20442;-75
2023/11/29 11:04:43;;;;;;;;;;;8.00;99.90;;;;;;5008638;28;19918;-75
2023/11/29 11:07:28;;;;;;;;;;;7.80;99.90;;;;;;5010173;28;19914;-75
2023/11/29 11:09:56;;;;;;;;;;;7.70;99.90;;;;;;5010461;28;19920;-75
2023/11/29 11:12:31;;;;;;;;;;;7.60;99.90;;;;;;5006379;28;20296;-75
2023/11/29 11:14:58;;;;;;;;;;;7.60;99.90;;;;;;4991238;28;19914;-75
2023/11/29 11:17:23;;;;;;;;;;;7.60;99.90;;;;;;4994728;28;19956;-75
2023/11/29 11:19:50;;;;;;;;;;;7.70;99.90;;;;;;5011720;28;19964;-75
2023/11/29 11:22:22;;;;;;;;;;;7.60;99.90;;;;;;5011006;28;19922;-75
2023/11/29 11:24:58;;;;;;;;;;;7.80;99.90;;;;;;5012510;28;19910;-75
2023/11/29 11:27:45;;;;;;;;;;;7.80;99.90;;;;;;5003476;28;19921;-75
2023/11/29 11:30:14;;;;;;;;;;;8.00;99.90;;;;;;5006142;28;19918;-75
2023/11/29 11:32:43;;;;;;;;;;;8.20;99.90;;;;;;5005194;28;19964;-75
2023/11/29 11:35:24;;;;;;;;;;;8.40;99.90;;;;;;5005962;28;19967;-76
2023/11/29 11:37:50;;;;;;;;;;;8.40;99.90;;;;;;5010127;28;19917;-76
2023/11/29 11:40:16;;;;;;;;;;;8.60;99.90;;;;;;5013002;28;19920;-75
2023/11/29 11:42:42;;;;;;;;;;;8.80;99.90;;;;;;5008220;28;20356;-75
2023/11/29 11:45:08;;;;;;;;;;;8.60;99.90;;;;;;5011208;28;19920;-75
2023/11/29 11:47:34;;;;;;;;;;;8.40;99.90;;;;;;5008705;28;20408;-75
2023/11/29 11:49:59;;;;;;;;;;;8.50;99.90;;;;;;5009565;28;19917;-75
2023/11/29 11:52:25;;;;;;;;;;;8.40;99.90;;;;;;5012328;28;20368;-74
2023/11/29 11:54:51;;;;;;;;;;;8.30;99.90;;;;;;5012948;28;19913;-75
2023/11/29 11:57:16;;;;;;;;;;;8.40;99.90;;;;;;5011695;28;19917;-74
2023/11/29 11:59:42;;;;;;;;;;;8.60;99.90;;;;;;5013542;28;19972;-74
2023/11/29 12:02:07;;;;;;;;;;;8.30;99.90;;;;;;5009028;28;19943;-74
2023/11/29 12:04:34;;;;;;;;;;;8.40;99.90;;;;;;5011279;28;20327;-75
2023/11/29 12:06:59;;;;;;;;;;;8.20;99.90;;;;;;5012669;28;19917;-75
2023/11/29 12:09:26;;;;;;;;;;;8.30;99.90;;;;;;5012659;28;19975;-74
2023/11/29 12:12:07;;;;;;;;;;;8.50;99.90;;;;;;5009090;28;19929;-74
2023/11/29 12:14:33;;;;;;;;;;;8.50;99.90;;;;;;5007618;28;19949;-74
2023/11/29 12:16:58;;;;;;;;;;;8.50;99.90;;;;;;5006771;28;19960;-74
2023/11/29 12:19:24;;;;;;;;;;;8.40;99.90;;;;;;5008807;28;19949;-75
2023/11/29 12:21:49;;;;;;;;;;;8.40;99.90;;;;;;5013003;28;19922;-75
2023/11/29 12:24:15;;;;;;;;;;;8.40;99.90;;;;;;5012612;28;19921;-74
2023/11/29 12:26:41;;;;;;;;;;;8.40;99.90;;;;;;5011940;28;20367;-75
2023/11/29 12:29:06;;;;;;;;;;;8.50;99.90;;;;;;5007289;28;19940;-75
2023/11/29 12:31:34;;;;;;;;;;;8.40;99.90;;;;;;5008769;28;20381;-74
2023/11/29 12:33:59;;;;;;;;;;;8.40;99.90;;;;;;5011670;28;20332;-75
2023/11/29 12:36:25;;;;;;;;;;;8.50;99.90;;;;;;5006338;28;19914;-75
2023/11/29 12:38:50;;;;;;;;;;;8.50;99.90;;;;;;4992987;28;20008;-75
2023/11/29 12:41:16;;;;;;;;;;;8.50;99.90;;;;;;4993488;28;20400;-74
2023/11/29 12:43:41;;;;;;;;;;;8.60;99.90;;;;;;4993111;28;19910;-74
2023/11/29 12:46:07;;;;;;;;;;;8.70;99.90;;;;;;4993257;28;19972;-75
2023/11/29 12:48:34;;;;;;;;;;;8.60;99.90;;;;;;5009974;28;20008;-74
2023/11/29 12:50:59;;;;;;;;;;;8.60;99.90;;;;;;5011318;28;19924;-74
2023/11/29 12:53:25;;;;;;;;;;;8.70;99.90;;;;;;5010907;28;19917;-74
2023/11/29 12:55:50;;;;;;;;;;;8.80;99.90;;;;;;5005189;28;19936;-74
2023/11/29 12:58:16;;;;;;;;;;;8.90;99.90;;;;;;4993196;28;19921;-75
2023/11/29 13:00:42;;;;;;;;;;;9.00;99.90;;;;;;4993712;28;19914;-75
2023/11/29 13:03:08;;;;;;;;;;;9.30;99.90;;;;;;4996765;28;19918;-75
2023/11/29 13:05:33;;;;;;;;;;;9.30;99.90;;;;;;5003507;28;19924;-74
2023/11/29 13:07:59;;;;;;;;;;;9.00;99.90;;;;;;5008753;28;20012;-75
2023/11/29 13:10:24;;;;;;;;;;;8.90;99.90;;;;;;5003660;28;19944;-74
2023/11/29 13:12:50;;;;;;;;;;;8.90;99.90;;;;;;5003801;28;20411;-73
2023/11/29 13:15:15;;;;;;;;;;;8.90;99.90;;;;;;4996578;28;19937;-73
2023/11/29 13:17:41;;;;;;;;;;;8.80;99.90;;;;;;5010354;28;19972;-73
2023/11/29 13:20:09;;;;;;;;;;;8.70;99.90;;;;;;4998270;28;19922;-74
2023/11/29 13:22:34;;;;;;;;;;;8.50;99.90;;;;;;5006693;28;19963;-74
2023/11/29 13:25:00;;;;;;;;;;;8.50;99.90;;;;;;5004353;28;19914;-73
2023/11/29 13:27:25;;;;;;;;;;;8.40;99.90;;;;;;5004355;28;19948;-73
2023/11/29 13:29:51;;;;;;;;;;;8.50;99.90;;;;;;5007083;28;19920;-73
2023/11/29 13:32:16;;;;;;;;;;;8.50;99.90;;;;;;5011020;28;20470;-75
2023/11/29 13:34:44;;;;;;;;;;;8.50;99.90;;;;;;5009899;28;20464;-75
2023/11/29 13:37:09;;;;;;;;;;;8.50;99.90;;;;;;5011042;28;19921;-75
2023/11/29 13:39:35;;;;;;;;;;;8.50;99.90;;;;;;4997834;28;20019;-74
2023/11/29 13:42:00;;;;;;;;;;;8.40;99.90;;;;;;4991581;28;19924;-73
2023/11/29 13:44:27;;;;;;;;;;;8.50;99.90;;;;;;4999089;28;20304;-73
2023/11/29 13:46:53;;;;;;;;;;;8.50;99.90;;;;;;5008364;28;19921;-75
2023/11/29 13:49:18;;;;;;;;;;;8.50;99.90;;;;;;4992577;28;19972;-75
2023/11/29 13:51:46;;;;;;;;;;;8.50;99.90;;;;;;4992536;28;19922;-73
2023/11/29 13:54:12;;;;;;;;;;;8.50;99.90;;;;;;4991927;28;19949;-74
2023/11/29 13:56:37;;;;;;;;;;;8.60;99.90;;;;;;4995863;28;20368;-73
2023/11/29 13:59:03;;;;;;;;;;;8.60;99.90;;;;;;4991896;28;19917;-75
2023/11/29 14:01:28;;;;;;;;;;;8.70;99.90;;;;;;4992054;28;19918;-75
2023/11/29 14:03:54;;;;;;;;;;;8.70;99.90;;;;;;5002341;28;19980;-73
2023/11/29 14:06:19;;;;;;;;;;;8.90;99.90;;;;;;5010593;28;20011;-75
2023/11/29 14:08:45;;;;;;;;;;;8.70;99.90;;;;;;5013850;28;19928;-74
2023/11/29 14:11:11;;;;;;;;;;;8.50;99.90;;;;;;5003571;28;19921;-73
2023/11/29 14:13:37;;;;;;;;;;;8.50;99.90;;;;;;5007942;28;19913;-75
2023/11/29 14:16:02;;;;;;;;;;;8.50;99.90;;;;;;5000911;28;19920;-75
2023/11/29 14:18:28;;;;;;;;;;;8.40;99.90;;;;;;5003269;28;19925;-73
2023/11/29 14:20:53;;;;;;;;;;;8.40;99.90;;;;;;5011085;28;19918;-73
2023/11/29 14:23:19;;;;;;;;;;;8.30;99.90;;;;;;5000373;28;19914;-73
2023/11/29 14:25:48;;;;;;;;;;;8.30;99.90;;;;;;5007375;28;20580;-73